Time;durP1;ratioP1;P1;durP2;ratioP2;P2;SDS_P1;SDS_P2;PMS_P1;PMS_P2;Temp;Humidity;BMP_temperature;BMP_pressure;BME280_temperature;BME280_humidity;BME280_pressure;Samples;Min_cycle;Max_cycle;Signal;HPM_P1;HPM_P2
2021/01/25 00:02:26;;;;;;;4.93;3.30;;;16.20;30.90;;;;;;8395231;28;20032;-53
2021/01/25 00:06:26;;;;;;;4.20;3.20;;;16.20;30.90;;;;;;8394371;28;20044;-53
2021/01/25 00:10:27;;;;;;;4.17;3.53;;;16.20;30.90;;;;;;8392463;28;20028;-53
2021/01/25 00:14:27;;;;;;;5.47;3.50;;;16.20;30.90;;;;;;8398670;28;20037;-54
2021/01/25 00:18:28;;;;;;;4.73;3.30;;;16.20;30.90;;;;;;8394715;28;20106;-53
2021/01/25 00:22:28;;;;;;;4.53;3.33;;;16.20;30.90;;;;;;8392600;28;20067;-52
2021/01/25 00:26:29;;;;;;;5.30;3.50;;;16.20;30.90;;;;;;8393599;28;20029;-50
2021/01/25 00:30:29;;;;;;;4.67;3.50;;;16.20;30.90;;;;;;8398041;28;20439;-50
2021/01/25 00:34:30;;;;;;;6.53;3.53;;;16.20;30.90;;;;;;8391813;28;20040;-53
2021/01/25 00:38:30;;;;;;;4.47;3.20;;;16.20;30.90;;;;;;8393442;28;20052;-53
2021/01/25 00:42:32;;;;;;;3.57;2.80;;;16.20;30.90;;;;;;8393152;28;20439;-52
2021/01/25 00:46:33;;;;;;;5.95;3.10;;;16.10;30.90;;;;;;8392840;28;20024;-52
2021/01/25 00:50:33;;;;;;;5.33;3.10;;;16.20;30.90;;;;;;8396298;28;20104;-53
2021/01/25 00:54:34;;;;;;;4.90;3.17;;;16.20;30.90;;;;;;8392980;28;20489;-52
2021/01/25 00:58:34;;;;;;;4.23;3.10;;;16.20;31.50;;;;;;8391482;28;20033;-52
2021/01/25 01:02:35;;;;;;;5.53;3.50;;;16.20;30.90;;;;;;8392416;28;20161;-53
2021/01/25 01:06:36;;;;;;;5.13;3.20;;;16.20;30.90;;;;;;8397281;28;20457;-50
2021/01/25 01:10:36;;;;;;;5.00;3.30;;;16.20;31.00;;;;;;8391364;28;20538;-54
2021/01/25 01:14:37;;;;;;;4.50;3.30;;;16.20;31.00;;;;;;8409395;28;20075;-53
2021/01/25 01:18:37;;;;;;;3.97;2.70;;;16.20;31.00;;;;;;8417551;28;20028;-53
2021/01/25 01:22:38;;;;;;;3.97;3.03;;;16.10;30.90;;;;;;8394202;28;20056;-52
2021/01/25 01:26:39;;;;;;;3.77;2.90;;;16.20;31.00;;;;;;8392133;27;20041;-53
2021/01/25 01:30:39;;;;;;;4.67;3.43;;;16.10;30.90;;;;;;8391654;28;20041;-53
2021/01/25 01:34:40;;;;;;;4.00;3.03;;;16.10;30.90;;;;;;8390227;28;20144;-53
2021/01/25 01:38:41;;;;;;;3.90;2.70;;;16.10;31.00;;;;;;8392799;28;20108;-53
2021/01/25 01:42:42;;;;;;;4.10;2.87;;;16.10;31.00;;;;;;8429391;28;20035;-53
2021/01/25 01:46:43;;;;;;;5.70;2.90;;;16.10;30.90;;;;;;8398195;28;20033;-52
2021/01/25 01:50:44;;;;;;;4.35;2.60;;;16.20;31.00;;;;;;8391423;28;20059;-52
2021/01/25 01:54:46;;;;;;;5.03;2.90;;;16.10;31.00;;;;;;8391493;28;20052;-53
2021/01/25 01:58:46;;;;;;;4.43;3.08;;;16.10;31.00;;;;;;8393695;28;20024;-52
2021/01/25 02:02:47;;;;;;;4.90;2.80;;;16.10;31.00;;;;;;8391069;28;20040;-53
2021/01/25 02:06:49;;;;;;;3.93;2.87;;;16.10;31.00;;;;;;8391209;28;20040;-53
2021/01/25 02:10:54;;;;;;;3.10;2.55;;;16.10;31.10;;;;;;8389359;28;20036;-51
2021/01/25 02:14:59;;;;;;;4.72;2.83;;;16.10;31.00;;;;;;8393111;28;20044;-53
2021/01/25 02:18:59;;;;;;;2.88;2.50;;;16.10;31.00;;;;;;8393700;27;20033;-52
2021/01/25 02:23:30;;;;;;;2.57;2.27;;;16.10;31.00;;;;;;8390885;28;20086;-53
2021/01/25 02:27:36;;;;;;;4.07;2.80;;;16.20;31.10;;;;;;8390879;27;20032;-51
2021/01/25 02:31:38;;;;;;;4.43;2.65;;;16.10;31.10;;;;;;8388982;27;20054;-53
2021/01/25 02:35:39;;;;;;;3.13;2.58;;;16.10;31.10;;;;;;8398307;28;20033;-52
2021/01/25 02:39:41;;;;;;;3.35;2.88;;;16.10;31.10;;;;;;8397041;28;20041;-54
2021/01/25 02:43:43;;;;;;;3.42;2.20;;;16.10;31.10;;;;;;8395390;27;20029;-54
2021/01/25 02:47:44;;;;;;;3.05;2.30;;;16.10;31.10;;;;;;8397035;28;20403;-52
2021/01/25 02:51:45;;;;;;;4.30;2.45;;;16.10;31.10;;;;;;8396835;27;20055;-53
2021/01/25 02:55:46;;;;;;;3.20;2.23;;;16.10;31.10;;;;;;8399490;28;20417;-54
2021/01/25 02:59:48;;;;;;;3.65;2.30;;;16.10;31.20;;;;;;8396476;28;20036;-53
2021/01/25 03:03:51;;;;;;;3.95;2.53;;;16.10;31.10;;;;;;8396434;28;20496;-53
2021/01/25 03:07:52;;;;;;;3.63;2.40;;;16.10;31.20;;;;;;8394660;28;20043;-53
2021/01/25 03:11:55;;;;;;;3.17;2.30;;;16.10;31.10;;;;;;8400403;28;20045;-53
2021/01/25 03:15:59;;;;;;;2.90;2.28;;;16.10;31.10;;;;;;8394606;28;20435;-53
2021/01/25 03:20:00;;;;;;;2.88;2.40;;;16.10;31.20;;;;;;8396272;28;20490;-52
2021/01/25 03:24:01;;;;;;;2.57;2.10;;;16.10;31.20;;;;;;8396147;28;20075;-53
2021/01/25 03:28:02;;;;;;;3.78;2.25;;;16.10;31.20;;;;;;8393944;28;20074;-53
2021/01/25 03:32:03;;;;;;;2.30;2.10;;;16.10;31.20;;;;;;8400187;28;20036;-52
2021/01/25 03:36:03;;;;;;;3.33;2.53;;;16.10;31.20;;;;;;8395743;28;20411;-53
2021/01/25 03:40:08;;;;;;;3.13;2.20;;;16.10;31.20;;;;;;8393750;28;20083;-53
2021/01/25 03:44:08;;;;;;;2.72;2.40;;;16.10;31.70;;;;;;8395792;28;20094;-53
2021/01/25 03:48:09;;;;;;;2.90;2.07;;;16.10;31.20;;;;;;8398657;28;20529;-52
2021/01/25 03:52:09;;;;;;;2.83;2.10;;;16.10;31.20;;;;;;8393318;28;20056;-53
2021/01/25 03:56:10;;;;;;;2.87;2.27;;;16.10;31.20;;;;;;8395684;28;20039;-51
2021/01/25 04:00:11;;;;;;;2.57;2.10;;;16.10;31.30;;;;;;8394881;28;20504;-53
2021/01/25 04:04:12;;;;;;;3.08;2.28;;;16.10;31.20;;;;;;8393605;28;20086;-53
2021/01/25 04:08:13;;;;;;;2.47;1.70;;;16.10;31.20;;;;;;8431583;28;20366;-53
2021/01/25 04:12:13;;;;;;;2.38;2.10;;;16.10;31.20;;;;;;8403322;28;20127;-54
2021/01/25 04:16:14;;;;;;;2.73;2.03;;;16.10;31.30;;;;;;8392837;28;20037;-54
2021/01/25 04:20:14;;;;;;;2.50;1.83;;;16.10;31.30;;;;;;8394327;28;20024;-50
2021/01/25 04:24:15;;;;;;;2.17;1.93;;;16.10;31.30;;;;;;8398260;28;20072;-53
2021/01/25 04:28:15;;;;;;;2.40;1.80;;;16.10;31.40;;;;;;8392181;28;20482;-53
2021/01/25 04:32:16;;;;;;;2.30;1.60;;;16.10;31.40;;;;;;8410823;28;20040;-53
2021/01/25 04:36:16;;;;;;;4.47;1.97;;;16.20;31.40;;;;;;8419109;28;20025;-53
2021/01/25 04:40:17;;;;;;;4.37;2.23;;;16.20;31.40;;;;;;8396270;28;20054;-53
2021/01/25 04:44:19;;;;;;;2.97;2.00;;;16.20;31.30;;;;;;8393315;28;20033;-54
2021/01/25 04:48:21;;;;;;;2.67;2.00;;;16.30;31.30;;;;;;8393496;27;20501;-52
2021/01/25 04:52:22;;;;;;;3.47;2.05;;;16.30;31.30;;;;;;8391606;27;20052;-51
2021/01/25 04:56:25;;;;;;;3.25;2.25;;;16.30;31.40;;;;;;8394276;28;20397;-53
2021/01/25 05:00:26;;;;;;;1.95;1.50;;;16.30;31.40;;;;;;8429639;28;20055;-52
2021/01/25 05:04:26;;;;;;;1.93;1.37;;;16.30;31.30;;;;;;8398184;28;20048;-53
2021/01/25 05:08:27;;;;;;;2.37;1.90;;;16.30;31.30;;;;;;8393030;28;20036;-53
2021/01/25 05:12:42;;;;;;;2.43;1.97;;;16.30;31.30;;;;;;8392210;28;20040;-54
2021/01/25 05:16:43;;;;;;;3.03;1.50;;;16.30;31.30;;;;;;8395248;27;20024;-53
2021/01/25 05:20:43;;;;;;;2.30;1.58;;;16.30;31.30;;;;;;8392382;28;20039;-49
2021/01/25 05:24:50;;;;;;;2.43;1.70;;;16.20;31.30;;;;;;8392101;28;20032;-52
2021/01/25 05:28:52;;;;;;;3.47;1.90;;;16.20;31.40;;;;;;8390165;28;20104;-49
2021/01/25 05:32:54;;;;;;;;;;;16.20;31.40;;;;;;8392287;28;20501;-49
2021/01/25 05:36:54;;;;;;;2.03;1.52;;;16.20;31.40;;;;;;8394774;27;19943;-50
2021/01/25 05:40:56;;;;;;;2.10;1.90;;;16.10;31.40;;;;;;8391688;28;20045;-49
2021/01/25 05:44:56;;;;;;;2.33;1.80;;;16.10;31.50;;;;;;8391645;28;20076;-52
2021/01/25 05:48:58;;;;;;;1.87;1.50;;;16.10;31.60;;;;;;8395904;28;20038;-49
2021/01/25 05:53:00;;;;;;;1.52;1.38;;;16.10;31.50;;;;;;8429092;27;20051;-51
2021/01/25 05:57:01;;;;;;;1.33;1.23;;;16.10;31.60;;;;;;8393887;28;20436;-51
2021/01/25 06:01:03;;;;;;;1.70;1.43;;;16.00;31.50;;;;;;8390302;28;20032;-50
2021/01/25 06:05:07;;;;;;;1.48;1.30;;;16.00;31.40;;;;;;8391099;28;20444;-51
2021/01/25 06:09:16;;;;;;;2.05;1.48;;;16.00;31.50;;;;;;8390603;28;20439;-51
2021/01/25 06:13:22;;;;;;;2.30;1.88;;;16.00;31.50;;;;;;8393435;28;20037;-51
2021/01/25 06:17:24;;;;;;;1.42;1.33;;;16.00;31.50;;;;;;8416548;28;20040;-55
2021/01/25 06:21:27;;;;;;;2.55;1.55;;;15.90;31.50;;;;;;8407111;28;20138;-52
2021/01/25 06:25:29;;;;;;;1.42;1.23;;;16.00;31.50;;;;;;8388655;28;20040;-53
2021/01/25 06:29:30;;;;;;;2.08;1.50;;;16.00;31.60;;;;;;8395164;28;20154;-52
2021/01/25 06:33:37;;;;;;;1.85;1.52;;;16.00;31.60;;;;;;8390510;28;20047;-53
2021/01/25 06:37:37;;;;;;;2.50;1.42;;;16.00;31.50;;;;;;8388356;28;20040;-51
2021/01/25 06:41:40;;;;;;;2.70;1.50;;;16.10;31.60;;;;;;8402595;28;20067;-51
2021/01/25 06:45:44;;;;;;;2.15;1.42;;;16.10;31.50;;;;;;8421189;28;20072;-53
2021/01/25 06:49:46;;;;;;;2.13;1.42;;;16.20;31.50;;;;;;8393141;28;20103;-53
2021/01/25 06:53:50;;;;;;;;;;;16.20;31.60;;;;;;8390690;28;20041;-53
2021/01/25 06:57:50;;;;;;;1.88;1.35;;;16.20;31.50;;;;;;8390180;28;19912;-53
2021/01/25 07:01:53;;;;;;;1.87;1.30;;;16.20;31.50;;;;;;8388868;28;20051;-52
2021/01/25 07:05:58;;;;;;;1.83;1.30;;;16.20;31.50;;;;;;8394883;28;20147;-53
2021/01/25 07:09:58;;;;;;;1.65;1.38;;;16.20;31.40;;;;;;8388647;28;20423;-53
2021/01/25 07:13:59;;;;;;;2.27;1.47;;;16.20;31.40;;;;;;8389852;27;20043;-54
2021/01/25 07:18:00;;;;;;;3.33;1.30;;;16.20;31.40;;;;;;8390562;28;20117;-53
2021/01/25 07:22:01;;;;;;;1.85;1.27;;;16.20;31.30;;;;;;8390703;28;20427;-53
2021/01/25 07:26:02;;;;;;;1.60;1.43;;;16.20;31.40;;;;;;8400471;27;20082;-52
2021/01/25 07:30:03;;;;;;;2.35;1.25;;;16.20;31.40;;;;;;8395652;28;20047;-52
2021/01/25 07:34:08;;;;;;;2.13;1.40;;;16.10;31.40;;;;;;8393911;28;20047;-51
2021/01/25 07:38:08;;;;;;;2.58;1.10;;;16.10;31.30;;;;;;8395650;28;20032;-50
2021/01/25 07:42:09;;;;;;;2.23;1.60;;;16.10;31.50;;;;;;8399557;28;20100;-49
2021/01/25 07:46:10;;;;;;;1.63;1.13;;;16.10;31.60;;;;;;8393471;28;20067;-51
2021/01/25 07:50:12;;;;;;;1.40;1.20;;;16.10;31.50;;;;;;8394956;28;20248;-52
2021/01/25 07:54:14;;;;;;;;;;;16.10;31.50;;;;;;8395307;28;20655;-53
2021/01/25 07:58:15;;;;;;;1.38;1.27;;;16.00;31.50;;;;;;8394320;27;19908;-53
2021/01/25 08:02:17;;;;;;;2.07;1.17;;;16.00;31.50;;;;;;8423181;28;20503;-53
2021/01/25 08:06:18;;;;;;;1.10;1.00;;;16.00;31.60;;;;;;8395149;28;20033;-50
2021/01/25 08:10:19;;;;;;;;;;;16.00;31.60;;;;;;8393757;27;20033;-54
2021/01/25 08:14:39;;;;;;;1.20;0.93;;;16.00;31.60;;;;;;8394178;28;20377;-54
2021/01/25 08:19:00;;;;;;;1.83;1.33;;;16.00;31.60;;;;;;8398912;28;20033;-53
2021/01/25 08:23:10;;;;;;;1.55;1.30;;;16.00;31.60;;;;;;8396276;28;20071;-50
2021/01/25 08:27:17;;;;;;;1.30;1.10;;;16.00;31.60;;;;;;8418712;28;20393;-53
2021/01/25 08:31:31;;;;;;;1.48;1.10;;;16.00;31.50;;;;;;8409272;28;20075;-50
2021/01/25 08:35:35;;;;;;;1.80;1.30;;;16.10;31.50;;;;;;8393794;28;20036;-53
2021/01/25 08:39:40;;;;;;;2.85;2.13;;;16.10;31.50;;;;;;8397790;28;20027;-52
2021/01/25 08:43:50;;;;;;;3.75;2.40;;;16.20;31.40;;;;;;8391625;28;20036;-53
2021/01/25 08:47:50;;;;;;;3.92;2.60;;;16.20;31.40;;;;;;8393124;28;20040;-53
2021/01/25 08:51:59;;;;;;;4.63;2.70;;;16.20;31.40;;;;;;8393119;28;20113;-50
2021/01/25 08:56:12;;;;;;;3.60;2.58;;;16.30;31.40;;;;;;8391230;28;20036;-53
2021/01/25 09:00:16;;;;;;;2.80;1.90;;;16.20;31.40;;;;;;8396971;28;20131;-52
2021/01/25 09:04:16;;;;;;;3.60;2.38;;;16.30;31.40;;;;;;8390791;28;20029;-51
2021/01/25 09:08:17;;;;;;;3.23;2.13;;;16.30;31.30;;;;;;8393064;28;20036;-53
2021/01/25 09:12:19;;;;;;;2.80;2.13;;;16.30;31.30;;;;;;8392435;28;20064;-54
2021/01/25 09:16:19;;;;;;;;;;;16.20;31.30;;;;;;8391040;28;20045;-54
2021/01/25 09:20:20;;;;;;;3.17;2.40;;;16.20;31.30;;;;;;8396673;28;19927;-53
2021/01/25 09:24:21;;;;;;;3.50;2.30;;;16.20;31.20;;;;;;8392332;28;20038;-53
2021/01/25 09:28:23;;;;;;;2.73;1.93;;;16.20;31.20;;;;;;8390086;28;20036;-52
2021/01/25 09:32:23;;;;;;;2.25;1.80;;;16.20;31.20;;;;;;8396158;28;20374;-53
2021/01/25 09:36:24;;;;;;;2.73;2.03;;;16.20;31.20;;;;;;8429818;28;20032;-53
2021/01/25 09:40:24;;;;;;;2.27;1.77;;;16.10;31.20;;;;;;8394448;28;20025;-53
2021/01/25 09:44:25;;;;;;;2.47;2.03;;;16.10;31.20;;;;;;8391114;28;20032;-53
2021/01/25 09:48:25;;;;;;;2.40;1.87;;;16.10;31.20;;;;;;8391198;28;20029;-51
2021/01/25 09:52:26;;;;;;;3.30;2.10;;;16.10;31.20;;;;;;8394220;28;20064;-53
2021/01/25 09:56:26;;;;;;;2.73;1.80;;;16.10;31.30;;;;;;8391410;28;20393;-53
2021/01/25 10:00:27;;;;;;;2.40;1.87;;;16.10;31.50;;;;;;8391184;27;20516;-53
2021/01/25 10:04:28;;;;;;;1.53;1.43;;;16.00;31.20;;;;;;8389260;28;20489;-52
2021/01/25 10:08:28;;;;;;;4.40;1.80;;;16.00;31.30;;;;;;8393477;28;20119;-54
2021/01/25 10:12:29;;;;;;;4.03;2.00;;;16.00;31.30;;;;;;8428657;28;20048;-54
2021/01/25 10:16:29;;;;;;;2.63;1.70;;;16.00;31.30;;;;;;8396824;28;20381;-53
2021/01/25 10:20:30;;;;;;;2.87;2.03;;;16.00;31.40;;;;;;8391566;28;20037;-54
2021/01/25 10:24:30;;;;;;;2.67;1.50;;;16.10;31.40;;;;;;8390999;28;20028;-54
2021/01/25 10:28:31;;;;;;;3.97;1.80;;;16.10;31.40;;;;;;8393517;28;20031;-54
2021/01/25 10:32:32;;;;;;;3.33;2.20;;;16.20;31.40;;;;;;8390695;28;20139;-54
2021/01/25 10:36:32;;;;;;;1.93;1.50;;;16.20;31.40;;;;;;8410109;28;20036;-54
2021/01/25 10:40:33;;;;;;;2.83;1.77;;;16.20;31.30;;;;;;8412561;28;20044;-52
2021/01/25 10:44:34;;;;;;;1.90;1.47;;;16.30;31.30;;;;;;8395283;28;20043;-54
2021/01/25 10:48:34;;;;;;;2.07;1.40;;;16.30;31.20;;;;;;8391739;28;20066;-53
2021/01/25 10:52:35;;;;;;;2.20;1.87;;;16.30;31.10;;;;;;8389160;28;20119;-54
2021/01/25 10:56:35;;;;;;;2.03;1.37;;;16.30;31.10;;;;;;8391996;28;20394;-54
2021/01/25 11:00:36;;;;;;;2.10;1.57;;;16.30;31.10;;;;;;8399441;28;20033;-54
2021/01/25 11:04:36;;;;;;;2.30;1.60;;;16.30;31.10;;;;;;8432861;28;20032;-54
2021/01/25 11:08:37;;;;;;;2.20;1.33;;;16.30;31.00;;;;;;8402506;28;20045;-54
2021/01/25 11:12:37;;;;;;;3.73;1.80;;;16.30;31.10;;;;;;8396017;28;20358;-53
2021/01/25 11:16:38;;;;;;;1.93;1.27;;;16.30;31.00;;;;;;8394471;28;20035;-54
2021/01/25 11:20:38;;;;;;;4.07;1.60;;;16.20;30.90;;;;;;8400518;28;20393;-53
2021/01/25 11:24:39;;;;;;;1.57;1.33;;;16.20;30.90;;;;;;8395706;28;20040;-53
2021/01/25 11:28:39;;;;;;;2.13;1.30;;;16.20;31.00;;;;;;8394636;28;20138;-53
2021/01/25 11:32:40;;;;;;;2.63;1.53;;;16.20;31.00;;;;;;8395478;28;20075;-53
2021/01/25 11:36:40;;;;;;;1.40;1.17;;;16.20;31.10;;;;;;8396597;28;20032;-55
2021/01/25 11:40:41;;;;;;;2.13;1.30;;;16.10;31.10;;;;;;8396686;28;20060;-54
2021/01/25 11:44:41;;;;;;;1.70;1.20;;;16.10;31.20;;;;;;8395313;28;20037;-53
2021/01/25 11:48:42;;;;;;;2.60;1.70;;;16.10;31.10;;;;;;8395091;28;20044;-53
2021/01/25 11:52:42;;;;;;;2.83;1.30;;;16.10;31.10;;;;;;8397019;28;20059;-54
2021/01/25 11:56:43;;;;;;;1.73;1.30;;;16.10;31.10;;;;;;8432503;28;20388;-54
2021/01/25 12:00:43;;;;;;;2.10;1.30;;;16.10;31.20;;;;;;8399949;28;20098;-53
2021/01/25 12:04:44;;;;;;;2.60;1.33;;;16.00;31.20;;;;;;8392997;28;20033;-54
2021/01/25 12:08:44;;;;;;;1.67;1.20;;;16.00;31.20;;;;;;8393748;28;20033;-54
2021/01/25 12:12:45;;;;;;;2.23;1.30;;;16.00;31.20;;;;;;8398308;28;20056;-54
2021/01/25 12:16:46;;;;;;;3.50;1.60;;;16.00;31.30;;;;;;8393133;28;20117;-54
2021/01/25 12:20:46;;;;;;;2.93;1.57;;;16.00;31.30;;;;;;8394227;28;20115;-55
2021/01/25 12:24:47;;;;;;;2.73;1.50;;;16.10;31.30;;;;;;8394197;28;20037;-55
2021/01/25 12:28:48;;;;;;;1.40;1.30;;;16.10;31.40;;;;;;8392091;28;20382;-55
2021/01/25 12:32:49;;;;;;;1.70;1.13;;;16.10;31.40;;;;;;8398072;28;20052;-54
2021/01/25 12:36:50;;;;;;;;;;;16.20;31.40;;;;;;8394050;27;20029;-55
2021/01/25 12:40:50;;;;;;;1.92;1.25;;;16.20;31.40;;;;;;8391755;28;19912;-55
2021/01/25 12:44:51;;;;;;;2.43;1.47;;;16.30;31.40;;;;;;8398070;28;20028;-55
2021/01/25 12:48:51;;;;;;;2.37;1.33;;;16.30;31.40;;;;;;8429427;27;20054;-52
2021/01/25 12:52:53;;;;;;;1.00;0.90;;;16.30;31.20;;;;;;8425605;27;20497;-55
2021/01/25 12:56:54;;;;;;;3.20;1.30;;;16.30;31.20;;;;;;8407437;28;20374;-55
2021/01/25 13:00:54;;;;;;;2.37;1.30;;;16.30;31.20;;;;;;8390983;27;20069;-53
2021/01/25 13:04:55;;;;;;;2.47;1.23;;;16.30;31.20;;;;;;8397093;28;20377;-55
2021/01/25 13:08:55;;;;;;;1.67;1.20;;;16.30;31.20;;;;;;8392552;28;20036;-55
2021/01/25 13:12:56;;;;;;;1.90;1.27;;;16.30;31.20;;;;;;8412667;28;20051;-54
2021/01/25 13:16:56;;;;;;;1.40;1.30;;;16.30;31.10;;;;;;8413026;28;20111;-54
2021/01/25 13:20:57;;;;;;;1.50;1.10;;;16.30;31.20;;;;;;8391700;28;20049;-54
2021/01/25 13:24:58;;;;;;;2.43;1.00;;;16.30;31.20;;;;;;8395028;28;20029;-54
2021/01/25 13:28:58;;;;;;;1.70;0.93;;;16.20;31.10;;;;;;8392169;28;20120;-55
2021/01/25 13:32:59;;;;;;;1.20;1.10;;;16.20;31.20;;;;;;8389872;28;20394;-55
2021/01/25 13:37:00;;;;;;;1.70;1.03;;;16.20;31.20;;;;;;8390420;28;20032;-55
2021/01/25 13:41:00;;;;;;;1.10;1.00;;;16.20;31.20;;;;;;8393169;28;20039;-55
2021/01/25 13:45:01;;;;;;;1.47;1.00;;;16.20;31.20;;;;;;8367051;28;20060;-55
2021/01/25 13:49:02;;;;;;;1.67;1.00;;;16.20;31.20;;;;;;8379481;28;20123;-54
2021/01/25 13:53:02;;;;;;;1.10;0.90;;;16.20;31.10;;;;;;8389746;27;20093;-55
2021/01/25 13:57:03;;;;;;;1.43;1.00;;;16.20;31.20;;;;;;8393568;28;20393;-53
2021/01/25 14:01:06;;;;;;;1.47;1.07;;;16.10;31.10;;;;;;8391443;28;20032;-54
2021/01/25 14:05:07;;;;;;;1.45;1.10;;;16.10;31.20;;;;;;8389936;27;20051;-55
2021/01/25 14:09:08;;;;;;;1.58;1.13;;;16.10;31.20;;;;;;8391140;28;20074;-54
2021/01/25 14:13:09;;;;;;;1.20;1.10;;;16.10;31.30;;;;;;8389335;27;20438;-53
2021/01/25 14:17:11;;;;;;;1.47;1.03;;;16.10;31.30;;;;;;8386817;27;20390;-55
2021/01/25 14:21:11;;;;;;;;;;;16.10;31.30;;;;;;8386544;28;20037;-55
2021/01/25 14:25:13;;;;;;;1.88;1.10;;;16.10;31.40;;;;;;8392757;28;19950;-55
2021/01/25 14:29:16;;;;;;;1.33;1.10;;;16.10;31.40;;;;;;8416142;27;20029;-54
2021/01/25 14:33:17;;;;;;;1.60;1.10;;;16.20;31.40;;;;;;8400261;28;20036;-54
2021/01/25 14:37:17;;;;;;;1.03;0.93;;;16.20;31.50;;;;;;8394653;28;20129;-55
2021/01/25 14:41:24;;;;;;;2.50;1.23;;;16.30;31.40;;;;;;8397369;28;20036;-54
2021/01/25 14:45:27;;;;;;;1.98;1.02;;;16.30;31.40;;;;;;8397088;27;20113;-55
2021/01/25 14:49:28;;;;;;;1.23;0.80;;;16.30;31.30;;;;;;8395318;28;20051;-55
2021/01/25 14:53:28;;;;;;;1.97;1.23;;;16.30;31.30;;;;;;8373602;28;20509;-55
2021/01/25 14:57:29;;;;;;;1.57;1.10;;;16.40;31.30;;;;;;8417636;28;20040;-55
2021/01/25 15:01:29;;;;;;;1.27;1.00;;;16.30;31.30;;;;;;8400563;28;20028;-55
2021/01/25 15:05:31;;;;;;;2.87;1.20;;;16.30;31.30;;;;;;8396474;28;20477;-55
2021/01/25 15:09:31;;;;;;;;;;;16.30;31.20;;;;;;8387079;28;20033;-55
2021/01/25 15:13:32;;;;;;;0.82;0.82;;;16.30;31.20;;;;;;8393373;28;19978;-55
2021/01/25 15:17:32;;;;;;;0.83;0.80;;;16.30;31.30;;;;;;8394789;28;20037;-55
2021/01/25 15:21:33;;;;;;;2.33;1.13;;;16.30;31.30;;;;;;8395852;27;20453;-55
2021/01/25 15:25:35;;;;;;;1.13;0.77;;;16.30;31.30;;;;;;8383666;28;20029;-55
2021/01/25 15:29:36;;;;;;;1.27;0.90;;;16.30;31.30;;;;;;8399964;28;20124;-54
2021/01/25 15:33:36;;;;;;;0.97;0.83;;;16.20;31.30;;;;;;8395307;28;20155;-55
2021/01/25 15:37:37;;;;;;;1.90;1.13;;;16.20;31.30;;;;;;8393768;28;20436;-53
2021/01/25 15:41:42;;;;;;;1.47;1.00;;;16.20;31.30;;;;;;8394327;28;20441;-47
2021/01/25 15:45:42;;;;;;;1.48;1.23;;;16.20;31.40;;;;;;8399545;28;20493;-54
2021/01/25 15:49:43;;;;;;;2.13;1.13;;;16.20;31.50;;;;;;8392817;27;20028;-54
2021/01/25 15:53:44;;;;;;;1.97;0.90;;;16.20;31.40;;;;;;8394962;27;20495;-54
2021/01/25 15:57:45;;;;;;;1.33;1.10;;;16.20;31.50;;;;;;8402338;28;20028;-53
2021/01/25 16:01:45;;;;;;;1.40;1.00;;;16.10;31.40;;;;;;8370335;28;20033;-53
2021/01/25 16:05:46;;;;;;;1.03;0.93;;;16.10;31.40;;;;;;8395081;28;20124;-55
2021/01/25 16:09:46;;;;;;;2.43;1.10;;;16.10;31.40;;;;;;8394123;28;20043;-49
2021/01/25 16:13:47;;;;;;;1.40;1.00;;;16.10;31.50;;;;;;8379518;27;20071;-54
2021/01/25 16:17:48;;;;;;;1.20;0.90;;;16.00;31.60;;;;;;8375287;28;20040;-53
2021/01/25 16:21:49;;;;;;;1.42;1.00;;;16.00;31.60;;;;;;8398680;28;20056;-54
2021/01/25 16:25:49;;;;;;;1.67;1.10;;;16.00;31.80;;;;;;8392955;28;20396;-54
2021/01/25 16:29:50;;;;;;;1.30;0.90;;;16.10;31.80;;;;;;8394454;28;20043;-53
2021/01/25 16:33:51;;;;;;;1.33;1.00;;;16.10;31.80;;;;;;8386462;27;20405;-54
2021/01/25 16:37:52;;;;;;;;;;;16.20;31.80;;;;;;8396954;28;20089;-54
2021/01/25 16:41:55;;;;;;;1.30;0.90;;;16.20;31.80;;;;;;8422843;28;19916;-53
2021/01/25 16:45:56;;;;;;;1.00;0.90;;;16.20;31.80;;;;;;8404250;27;20047;-52
2021/01/25 16:49:57;;;;;;;5.17;1.30;;;16.30;31.80;;;;;;8386660;28;20041;-53
2021/01/25 16:53:57;;;;;;;2.10;1.00;;;16.30;31.70;;;;;;8362966;28;20141;-57
2021/01/25 16:57:58;;;;;;;1.20;1.10;;;16.30;31.70;;;;;;8390654;27;20036;-58
2021/01/25 17:01:59;;;;;;;2.73;1.10;;;16.30;31.70;;;;;;8391576;28;20451;-56
2021/01/25 17:05:59;;;;;;;1.92;1.02;;;16.30;32.00;;;;;;8377871;28;20091;-56
2021/01/25 17:10:00;;;;;;;4.37;1.57;;;16.30;32.50;;;;;;8388567;27;20044;-56
2021/01/25 17:14:00;;;;;;;2.43;1.10;;;16.40;33.40;;;;;;8396897;28;20048;-53
2021/01/25 17:18:01;;;;;;;3.40;1.23;;;16.50;33.80;;;;;;8391621;28;20033;-53
2021/01/25 17:22:03;;;;;;;2.67;1.30;;;16.50;34.10;;;;;;8389558;28;20047;-54
2021/01/25 17:26:03;;;;;;;8.30;1.27;;;16.60;34.40;;;;;;8369846;28;20036;-57
2021/01/25 17:30:05;;;;;;;10.33;1.67;;;16.60;34.60;;;;;;8387655;28;20132;-58
2021/01/25 17:34:06;;;;;;;8.75;1.77;;;16.60;34.70;;;;;;8420635;28;20481;-56
2021/01/25 17:38:07;;;;;;;20.53;1.70;;;16.70;34.70;;;;;;8386179;28;20037;-55
2021/01/25 17:42:08;;;;;;;7.35;2.13;;;16.70;34.40;;;;;;8384541;28;20147;-55
2021/01/25 17:46:08;;;;;;;14.83;2.23;;;16.70;34.50;;;;;;8387484;28;20458;-56
2021/01/25 17:50:10;;;;;;;10.87;1.50;;;16.70;34.50;;;;;;8390952;27;20028;-54
2021/01/25 17:54:10;;;;;;;10.93;1.80;;;16.70;34.70;;;;;;8382533;28;20724;-56
2021/01/25 17:58:11;;;;;;;12.23;2.33;;;16.70;34.60;;;;;;8382268;28;20044;-57
2021/01/25 18:02:11;;;;;;;16.80;1.97;;;16.70;34.50;;;;;;8385026;27;20051;-56
2021/01/25 18:06:13;;;;;;;8.10;1.73;;;16.80;34.60;;;;;;8387258;28;20040;-57
2021/01/25 18:10:16;;;;;;;2.67;1.30;;;16.80;34.60;;;;;;8386400;28;20039;-57
2021/01/25 18:14:17;;;;;;;5.55;1.20;;;16.80;34.60;;;;;;8385018;27;20045;-55
2021/01/25 18:18:18;;;;;;;9.10;1.42;;;16.80;34.50;;;;;;8376461;28;20060;-52
2021/01/25 18:22:19;;;;;;;9.55;1.65;;;16.80;34.60;;;;;;8382897;28;20512;-53
2021/01/25 18:26:19;;;;;;;9.90;1.47;;;16.90;34.60;;;;;;8393510;28;20034;-56
2021/01/25 18:30:23;;;;;;;13.00;1.60;;;16.90;34.70;;;;;;8390529;28;20036;-55
2021/01/25 18:34:24;;;;;;;6.00;1.35;;;16.90;34.70;;;;;;8385599;27;20090;-55
2021/01/25 18:38:25;;;;;;;7.93;1.97;;;16.90;34.70;;;;;;8392297;28;20128;-60
2021/01/25 18:42:25;;;;;;;9.20;1.73;;;16.90;35.10;;;;;;8398284;28;20416;-55
2021/01/25 18:46:26;;;;;;;8.43;1.70;;;16.90;35.10;;;;;;8384066;28;20397;-54
2021/01/25 18:50:26;;;;;;;2.67;1.20;;;16.90;34.80;;;;;;8386876;28;20039;-55
2021/01/25 18:54:27;;;;;;;7.03;2.03;;;16.90;34.70;;;;;;8389997;28;20037;-51
2021/01/25 18:58:27;;;;;;;9.63;2.63;;;16.80;34.10;;;;;;8392940;27;20048;-52
2021/01/25 19:02:28;;;;;;;5.30;1.87;;;16.80;33.90;;;;;;8390252;27;20024;-54
2021/01/25 19:06:28;;;;;;;8.90;1.93;;;16.80;33.90;;;;;;8392282;28;20037;-54
2021/01/25 19:10:29;;;;;;;7.90;2.17;;;16.70;33.90;;;;;;8389541;28;20038;-54
2021/01/25 19:14:30;;;;;;;11.63;1.93;;;16.70;33.90;;;;;;8390000;27;20073;-55
2021/01/25 19:18:30;;;;;;;7.70;1.90;;;16.70;33.90;;;;;;8397445;28;20143;-56
2021/01/25 19:22:31;;;;;;;5.37;1.70;;;16.60;33.70;;;;;;8391181;27;20036;-56
2021/01/25 19:26:32;;;;;;;5.37;1.60;;;16.60;34.20;;;;;;8378812;28;20512;-56
2021/01/25 19:30:33;;;;;;;4.30;2.03;;;16.60;33.60;;;;;;8395731;28;20067;-55
2021/01/25 19:34:34;;;;;;;4.13;1.63;;;16.50;33.60;;;;;;8396953;28;20401;-56
2021/01/25 19:38:35;;;;;;;5.07;1.97;;;16.50;33.50;;;;;;8395506;27;20037;-55
2021/01/25 19:42:36;;;;;;;3.80;1.95;;;16.50;33.60;;;;;;8385889;28;20048;-56
2021/01/25 19:46:37;;;;;;;6.57;1.97;;;16.50;33.70;;;;;;8401228;27;20457;-56
2021/01/25 19:50:38;;;;;;;3.90;2.07;;;16.50;33.70;;;;;;8433079;27;20085;-57
2021/01/25 19:54:39;;;;;;;6.60;2.17;;;16.50;33.60;;;;;;8395419;28;20049;-56
2021/01/25 19:58:39;;;;;;;5.40;2.07;;;16.50;33.60;;;;;;8407794;27;20115;-55
2021/01/25 20:02:40;;;;;;;3.30;1.80;;;16.60;33.60;;;;;;8394555;27;20493;-54
2021/01/25 20:06:40;;;;;;;6.07;1.90;;;16.60;33.50;;;;;;8394978;28;20386;-56
2021/01/25 20:10:41;;;;;;;3.03;1.70;;;16.70;33.50;;;;;;8397491;28;20024;-56
2021/01/25 20:14:42;;;;;;;3.30;1.73;;;16.70;33.50;;;;;;8394591;28;20049;-57
2021/01/25 20:18:42;;;;;;;3.30;1.87;;;16.70;33.30;;;;;;8394521;28;20033;-56
2021/01/25 20:22:47;;;;;;;5.23;1.70;;;16.70;33.40;;;;;;8392655;28;20036;-56
2021/01/25 20:26:47;;;;;;;5.88;2.15;;;16.70;33.40;;;;;;8398958;28;20025;-56
2021/01/25 20:30:50;;;;;;;5.30;1.77;;;16.70;33.30;;;;;;8423750;28;20033;-57
2021/01/25 20:34:50;;;;;;;4.32;1.60;;;16.60;33.20;;;;;;8404260;28;20045;-57
2021/01/25 20:38:53;;;;;;;3.80;1.53;;;16.60;33.20;;;;;;8393780;28;20134;-56
2021/01/25 20:42:55;;;;;;;2.67;1.50;;;16.60;33.10;;;;;;8391955;27;20481;-56
2021/01/25 20:46:55;;;;;;;3.97;1.60;;;16.60;33.00;;;;;;8397805;28;20115;-56
2021/01/25 20:50:56;;;;;;;3.37;1.37;;;16.60;33.00;;;;;;8393438;28;20554;-56
2021/01/25 20:54:57;;;;;;;3.23;1.87;;;16.50;33.00;;;;;;8391897;28;20113;-56
2021/01/25 20:58:57;;;;;;;4.73;1.90;;;16.50;32.90;;;;;;8394155;28;20043;-56